Time;durP1;ratioP1;P1;durP2;ratioP2;P2;SDS_P1;SDS_P2;PMS_P1;PMS_P2;Temp;Humidity;BMP_temperature;BMP_pressure;BME280_temperature;BME280_humidity;BME280_pressure;Samples;Min_cycle;Max_cycle;Signal;HPM_P1;HPM_P2
2020/12/29 00:01:42;;;;;;;4.72;2.45;;;23.00;47.80;;;;;;5031051;28;45336;-41
2020/12/29 00:04:12;;;;;;;3.92;2.10;;;23.10;47.90;;;;;;5049344;28;45513;-41
2020/12/29 00:06:49;;;;;;;5.10;2.55;;;23.00;47.80;;;;;;5047634;28;46937;-41
2020/12/29 00:09:15;;;;;;;4.57;2.45;;;23.00;47.90;;;;;;5030922;28;45356;-41
2020/12/29 00:11:41;;;;;;;4.22;2.47;;;23.00;47.90;;;;;;5031158;28;45329;-42
2020/12/29 00:14:07;;;;;;;4.30;2.17;;;22.90;47.90;;;;;;5031391;28;45538;-42
2020/12/29 00:16:32;;;;;;;4.50;2.00;;;22.90;47.90;;;;;;5030934;28;46983;-42
2020/12/29 00:18:58;;;;;;;4.65;1.95;;;22.90;47.90;;;;;;5031136;28;45300;-42
2020/12/29 00:21:24;;;;;;;5.13;2.42;;;22.90;47.90;;;;;;5030929;28;45293;-42
2020/12/29 00:23:49;;;;;;;3.92;1.90;;;22.90;47.90;;;;;;5031666;28;45320;-42
2020/12/29 00:26:16;;;;;;;5.13;2.42;;;22.90;47.90;;;;;;5030198;28;46248;-42
2020/12/29 00:28:42;;;;;;;3.70;1.80;;;22.90;47.90;;;;;;5030614;28;45262;-41
2020/12/29 00:31:07;;;;;;;4.50;2.50;;;22.90;47.90;;;;;;5030693;28;45307;-42
2020/12/29 00:33:33;;;;;;;6.15;2.38;;;22.90;48.00;;;;;;5030971;28;45290;-42
2020/12/29 00:35:59;;;;;;;3.55;1.92;;;22.90;48.00;;;;;;5030344;28;45397;-41
2020/12/29 00:38:25;;;;;;;3.65;1.92;;;22.80;48.00;;;;;;5029811;28;45366;-42
2020/12/29 00:40:50;;;;;;;4.85;1.85;;;22.80;47.90;;;;;;5029516;28;45339;-42
2020/12/29 00:43:16;;;;;;;4.15;1.80;;;22.80;48.00;;;;;;5027453;28;45284;-42
2020/12/29 00:45:42;;;;;;;3.85;1.95;;;22.80;48.00;;;;;;5015915;28;45400;-42
2020/12/29 00:48:07;;;;;;;3.92;1.90;;;22.80;48.00;;;;;;5047296;28;45331;-42
2020/12/29 00:50:33;;;;;;;3.17;2.08;;;22.80;48.00;;;;;;5046945;28;45289;-46
2020/12/29 00:52:59;;;;;;;3.88;1.80;;;22.80;48.00;;;;;;5047728;28;45542;-42
2020/12/29 00:55:24;;;;;;;3.75;1.90;;;22.80;48.00;;;;;;5046784;28;46070;-42
2020/12/29 00:57:50;;;;;;;3.47;1.98;;;22.80;48.00;;;;;;5046724;28;45475;-42
2020/12/29 01:00:15;;;;;;;3.60;1.77;;;22.80;48.00;;;;;;5046961;28;45348;-42
2020/12/29 01:02:42;;;;;;;4.07;1.90;;;22.80;48.10;;;;;;5047268;28;45606;-42
2020/12/29 01:05:08;;;;;;;4.05;2.47;;;22.70;48.00;;;;;;5046255;28;45417;-42
2020/12/29 01:07:36;;;;;;;4.20;2.20;;;22.70;48.00;;;;;;5046892;28;45438;-42
2020/12/29 01:10:02;;;;;;;3.42;1.90;;;22.70;48.10;;;;;;5046807;28;45315;-42
2020/12/29 01:12:28;;;;;;;3.67;2.00;;;22.70;48.10;;;;;;5047234;28;45228;-42
2020/12/29 01:14:54;;;;;;;3.60;2.28;;;22.70;48.10;;;;;;5046364;28;47229;-42
2020/12/29 01:17:19;;;;;;;3.97;2.40;;;22.70;48.10;;;;;;5029806;28;45366;-42
2020/12/29 01:19:45;;;;;;;4.25;2.00;;;22.70;48.10;;;;;;5046824;28;45378;-42
2020/12/29 01:22:11;;;;;;;3.85;1.95;;;22.70;48.20;;;;;;5046970;28;45299;-42
2020/12/29 01:24:36;;;;;;;3.63;1.90;;;22.70;48.10;;;;;;5046260;28;46331;-42
2020/12/29 01:27:02;;;;;;;5.65;2.13;;;22.70;48.20;;;;;;5046087;28;45370;-42
2020/12/29 01:29:28;;;;;;;3.72;2.00;;;22.60;48.20;;;;;;5046348;28;45503;-41
2020/12/29 01:31:53;;;;;;;3.80;1.70;;;22.70;48.20;;;;;;5047212;28;45581;-41
2020/12/29 01:34:19;;;;;;;3.65;1.77;;;22.60;48.10;;;;;;5046358;28;47172;-42
2020/12/29 01:36:44;;;;;;;5.32;1.85;;;22.60;48.20;;;;;;5045182;28;45386;-42
2020/12/29 01:39:10;;;;;;;3.42;1.77;;;22.60;48.20;;;;;;5009495;28;45424;-42
2020/12/29 01:41:36;;;;;;;3.33;2.17;;;22.60;48.20;;;;;;5016239;28;45642;-41
2020/12/29 01:44:14;;;;;;;4.00;1.88;;;22.60;48.10;;;;;;5045816;28;46184;-42
2020/12/29 01:46:50;;;;;;;3.80;1.75;;;22.60;48.80;;;;;;5045918;28;45327;-42
2020/12/29 01:49:19;;;;;;;4.25;2.00;;;22.60;48.10;;;;;;5047788;28;45247;-42
2020/12/29 01:51:45;;;;;;;3.45;1.85;;;22.60;48.20;;;;;;5046721;28;45448;-42
2020/12/29 01:54:11;;;;;;;3.28;1.88;;;22.60;48.20;;;;;;5047800;28;46000;-42
2020/12/29 01:56:38;;;;;;;3.45;1.98;;;22.60;48.20;;;;;;5049845;28;45348;-42
2020/12/29 01:59:08;;;;;;;3.97;1.90;;;22.60;48.20;;;;;;5049977;28;45285;-41
2020/12/29 02:01:42;;;;;;;3.45;1.77;;;22.60;48.20;;;;;;5050164;28;45432;-41
2020/12/29 02:04:07;;;;;;;3.15;1.70;;;22.60;48.20;;;;;;5049444;28;46033;-41
2020/12/29 02:06:34;;;;;;;3.60;1.80;;;22.50;48.10;;;;;;5049443;28;45403;-41
2020/12/29 02:09:00;;;;;;;3.70;1.75;;;22.60;48.10;;;;;;5049484;28;45399;-41
2020/12/29 02:11:26;;;;;;;4.00;1.63;;;22.60;48.20;;;;;;5050234;28;45303;-41
2020/12/29 02:13:51;;;;;;;3.58;2.00;;;22.60;48.10;;;;;;5049451;28;45334;-41
2020/12/29 02:16:17;;;;;;;3.10;1.70;;;22.60;48.20;;;;;;5049516;28;45427;-42
2020/12/29 02:18:42;;;;;;;4.35;2.05;;;22.60;48.10;;;;;;5049229;28;45337;-41
2020/12/29 02:21:08;;;;;;;4.15;2.35;;;22.60;48.10;;;;;;5049837;28;45305;-41
2020/12/29 02:23:33;;;;;;;3.60;2.00;;;22.60;48.10;;;;;;5048775;28;45373;-41
2020/12/29 02:25:59;;;;;;;3.65;2.05;;;22.60;48.10;;;;;;5048921;28;45429;-41
2020/12/29 02:28:25;;;;;;;3.70;2.00;;;22.50;48.10;;;;;;5049366;28;45378;-41
2020/12/29 02:30:50;;;;;;;3.70;1.88;;;22.60;48.20;;;;;;5049682;28;45281;-41
2020/12/29 02:33:16;;;;;;;4.10;2.00;;;22.50;48.10;;;;;;5048898;28;46092;-41
2020/12/29 02:35:42;;;;;;;4.43;2.08;;;22.50;48.10;;;;;;5049002;28;45294;-41
2020/12/29 02:38:07;;;;;;;3.30;1.70;;;22.50;48.20;;;;;;5049167;28;45499;-41
2020/12/29 02:40:33;;;;;;;3.60;1.63;;;22.50;48.10;;;;;;5032409;28;45596;-41
2020/12/29 02:42:58;;;;;;;3.95;1.90;;;22.50;48.10;;;;;;5031449;28;47054;-41
2020/12/29 02:45:24;;;;;;;3.20;2.00;;;22.50;48.20;;;;;;5045157;28;45327;-41
2020/12/29 02:47:50;;;;;;;2.92;1.48;;;22.50;48.10;;;;;;5028858;28;45400;-42
2020/12/29 02:50:15;;;;;;;2.38;1.38;;;22.50;48.10;;;;;;5034466;28;45538;-41
2020/12/29 02:52:41;;;;;;;3.17;1.63;;;22.50;48.20;;;;;;5045500;28;46147;-42
2020/12/29 02:55:07;;;;;;;2.88;1.55;;;22.50;48.20;;;;;;5044912;28;45546;-42
2020/12/29 02:57:32;;;;;;;2.95;1.30;;;22.50;48.20;;;;;;5045459;28;45446;-43
2020/12/29 02:59:58;;;;;;;2.53;1.40;;;22.50;48.20;;;;;;5049311;28;45209;-42
2020/12/29 03:02:23;;;;;;;2.70;1.50;;;22.50;48.20;;;;;;5049392;28;47345;-42
2020/12/29 03:04:49;;;;;;;3.05;1.55;;;22.50;48.10;;;;;;5047204;28;45326;-42
2020/12/29 03:07:15;;;;;;;3.33;1.73;;;22.50;48.10;;;;;;5044785;28;45379;-42
2020/12/29 03:09:40;;;;;;;3.60;1.73;;;22.50;48.20;;;;;;5069450;28;45582;-42
2020/12/29 03:12:06;;;;;;;3.30;1.67;;;22.50;48.10;;;;;;5050648;28;46321;-42
2020/12/29 03:14:32;;;;;;;3.60;1.80;;;22.50;48.30;;;;;;5045144;28;45270;-42
2020/12/29 03:16:58;;;;;;;4.80;2.00;;;22.50;48.40;;;;;;5028440;28;45467;-42
2020/12/29 03:19:23;;;;;;;3.90;1.80;;;22.50;48.30;;;;;;5012003;28;45369;-42
2020/12/29 03:21:49;;;;;;;2.60;1.50;;;22.40;48.20;;;;;;5045034;28;45416;-44
2020/12/29 03:24:15;;;;;;;2.95;1.58;;;22.50;48.20;;;;;;5042159;28;45339;-43
2020/12/29 03:26:41;;;;;;;3.55;1.80;;;22.40;48.80;;;;;;5047692;28;45388;-42
2020/12/29 03:29:07;;;;;;;3.88;1.60;;;22.50;48.30;;;;;;5048954;28;45342;-43
2020/12/29 03:31:32;;;;;;;3.20;1.70;;;22.50;48.20;;;;;;5047859;28;46956;-42
2020/12/29 03:34:00;;;;;;;2.92;1.80;;;22.60;48.30;;;;;;5048405;28;45390;-42
2020/12/29 03:36:25;;;;;;;2.80;1.60;;;22.60;48.40;;;;;;5048104;28;45345;-42
2020/12/29 03:38:51;;;;;;;3.10;1.63;;;22.60;48.50;;;;;;5030683;28;45578;-42
2020/12/29 03:41:16;;;;;;;3.45;1.60;;;22.70;48.40;;;;;;5026568;28;46222;-42
2020/12/29 03:43:42;;;;;;;3.28;1.60;;;22.70;48.40;;;;;;5011651;28;45708;-42
2020/12/29 03:46:08;;;;;;;3.13;1.63;;;22.70;48.20;;;;;;5020117;28;45321;-42
2020/12/29 03:48:33;;;;;;;3.25;1.42;;;22.80;48.20;;;;;;5048415;28;45301;-42
2020/12/29 03:50:59;;;;;;;2.58;1.38;;;22.80;48.30;;;;;;5047820;28;46198;-42
2020/12/29 03:53:24;;;;;;;3.00;1.67;;;22.80;48.20;;;;;;5047615;28;45411;-42
2020/12/29 03:55:50;;;;;;;4.00;1.90;;;22.80;48.20;;;;;;5047931;28;45417;-42
2020/12/29 03:58:16;;;;;;;3.05;1.40;;;22.90;48.20;;;;;;5048265;28;45386;-42
2020/12/29 04:00:41;;;;;;;2.78;1.48;;;22.90;48.30;;;;;;5047737;28;46215;-42
2020/12/29 04:03:07;;;;;;;3.28;1.50;;;22.90;48.20;;;;;;5047326;28;45500;-42
2020/12/29 04:05:33;;;;;;;4.15;1.95;;;22.90;48.10;;;;;;5047781;28;45395;-42
2020/12/29 04:07:58;;;;;;;3.42;1.67;;;23.00;48.10;;;;;;5048119;28;45598;-42
2020/12/29 04:10:24;;;;;;;2.85;1.35;;;23.00;48.10;;;;;;5047630;28;45224;-42
2020/12/29 04:12:50;;;;;;;3.13;1.58;;;23.00;48.00;;;;;;5045535;28;45233;-42
2020/12/29 04:15:15;;;;;;;2.63;1.52;;;23.00;48.00;;;;;;5026659;28;45414;-42
2020/12/29 04:17:42;;;;;;;3.15;1.35;;;23.10;48.00;;;;;;5047398;28;45552;-42
2020/12/29 04:20:10;;;;;;;2.70;1.15;;;23.10;48.60;;;;;;5041686;28;45556;-42
2020/12/29 04:22:37;;;;;;;2.63;1.30;;;23.10;48.00;;;;;;5030681;28;45415;-42
2020/12/29 04:25:06;;;;;;;3.00;1.60;;;23.10;47.90;;;;;;5042822;28;45435;-42
2020/12/29 04:27:32;;;;;;;2.88;1.67;;;23.10;47.80;;;;;;5027776;28;45419;-42
2020/12/29 04:29:58;;;;;;;2.45;1.30;;;23.20;47.70;;;;;;5029132;28;47076;-42
2020/12/29 04:32:24;;;;;;;2.15;1.10;;;23.20;47.70;;;;;;5013815;28;45449;-42
2020/12/29 04:34:49;;;;;;;2.63;1.40;;;23.20;47.70;;;;;;5010738;28;45280;-43
2020/12/29 04:37:15;;;;;;;2.63;1.30;;;23.20;47.70;;;;;;5021664;28;45427;-42
2020/12/29 04:39:41;;;;;;;2.45;1.35;;;23.20;47.70;;;;;;5029801;28;46083;-42
2020/12/29 04:42:10;;;;;;;2.60;1.20;;;23.20;47.70;;;;;;5046519;28;45367;-42
2020/12/29 04:44:38;;;;;;;2.40;1.17;;;23.30;47.70;;;;;;5037784;28;45208;-42
2020/12/29 04:47:04;;;;;;;2.92;1.30;;;23.20;47.50;;;;;;5030784;28;45356;-42
2020/12/29 04:49:31;;;;;;;2.80;1.50;;;23.30;47.50;;;;;;5044262;28;45422;-42
2020/12/29 04:51:57;;;;;;;2.33;1.02;;;23.30;47.50;;;;;;5027180;28;45518;-42
2020/12/29 04:54:24;;;;;;;2.47;1.33;;;23.30;47.50;;;;;;5027356;28;45434;-47
2020/12/29 04:56:56;;;;;;;1.98;1.10;;;23.30;47.40;;;;;;5027574;28;45698;-43
2020/12/29 04:59:22;;;;;;;2.58;1.23;;;23.40;47.50;;;;;;5026723;28;46987;-44
2020/12/29 05:01:48;;;;;;;2.35;1.20;;;23.40;47.50;;;;;;5038752;28;45363;-42
2020/12/29 05:04:13;;;;;;;2.80;1.10;;;23.40;47.40;;;;;;5030003;28;45441;-42
2020/12/29 05:06:40;;;;;;;2.63;1.33;;;23.40;47.40;;;;;;5030444;28;45579;-42
2020/12/29 05:09:05;;;;;;;1.92;0.90;;;23.40;47.30;;;;;;5021188;28;46820;-43
2020/12/29 05:11:33;;;;;;;1.98;0.98;;;23.40;47.30;;;;;;5018074;28;45222;-42
2020/12/29 05:13:59;;;;;;;2.50;1.10;;;23.40;47.20;;;;;;5036262;28;45526;-42
2020/12/29 05:16:25;;;;;;;2.58;1.38;;;23.50;47.30;;;;;;5024825;28;45658;-42
2020/12/29 05:18:51;;;;;;;2.10;1.15;;;23.40;47.20;;;;;;5026078;28;47217;-42
2020/12/29 05:21:17;;;;;;;2.72;1.33;;;23.40;47.20;;;;;;5010116;28;45412;-42
2020/12/29 05:23:42;;;;;;;2.70;1.45;;;23.40;47.20;;;;;;5025044;28;45340;-42
2020/12/29 05:26:08;;;;;;;1.85;0.80;;;23.50;47.20;;;;;;5046507;28;45407;-43
2020/12/29 05:28:34;;;;;;;1.92;0.98;;;23.50;47.20;;;;;;5036984;28;45614;-42
2020/12/29 05:31:00;;;;;;;2.03;1.02;;;23.50;47.10;;;;;;5016342;28;45332;-42
2020/12/29 05:33:26;;;;;;;3.90;1.83;;;23.50;47.10;;;;;;5029784;28;45318;-42
2020/12/29 05:35:53;;;;;;;2.40;1.00;;;23.60;47.20;;;;;;5030115;28;45242;-42
2020/12/29 05:38:19;;;;;;;2.38;1.20;;;23.60;47.10;;;;;;5031709;28;46163;-42
2020/12/29 05:40:46;;;;;;;2.45;1.13;;;23.60;47.10;;;;;;5032694;28;45621;-42
2020/12/29 05:43:12;;;;;;;1.60;0.80;;;23.70;47.10;;;;;;5029533;28;45468;-42
2020/12/29 05:45:38;;;;;;;2.65;1.20;;;23.70;47.10;;;;;;5031890;28;45347;-42
2020/12/29 05:48:03;;;;;;;2.40;1.23;;;23.70;47.10;;;;;;5031342;28;47176;-42
2020/12/29 05:50:29;;;;;;;2.00;1.08;;;23.70;47.00;;;;;;5031608;28;45288;-42
2020/12/29 05:53:05;;;;;;;2.55;1.02;;;23.80;47.10;;;;;;5049906;28;45293;-42
2020/12/29 05:55:34;;;;;;;2.28;1.15;;;23.80;47.00;;;;;;5049296;28;45345;-42
2020/12/29 05:58:09;;;;;;;2.80;1.00;;;23.80;47.00;;;;;;5049391;28;47053;-42
2020/12/29 06:00:36;;;;;;;2.15;1.00;;;23.90;47.00;;;;;;5045744;28;45432;-42
2020/12/29 06:03:03;;;;;;;2.20;0.95;;;23.90;47.00;;;;;;5029560;28;45348;-42
2020/12/29 06:05:29;;;;;;;2.63;1.13;;;23.90;47.00;;;;;;5030253;28;45552;-43
2020/12/29 06:07:56;;;;;;;1.90;0.95;;;23.90;46.90;;;;;;5032663;28;47003;-42
2020/12/29 06:10:26;;;;;;;1.67;0.90;;;23.90;46.90;;;;;;5032672;28;45212;-42
2020/12/29 06:12:59;;;;;;;2.67;1.10;;;23.90;46.80;;;;;;5049626;28;45391;-42
2020/12/29 06:15:32;;;;;;;2.92;1.33;;;23.90;46.80;;;;;;5029822;28;45328;-42
2020/12/29 06:18:04;;;;;;;2.00;0.93;;;24.00;46.80;;;;;;5029015;28;45392;-42
2020/12/29 06:20:33;;;;;;;1.95;1.02;;;23.90;46.80;;;;;;5029213;28;45322;-42
2020/12/29 06:23:00;;;;;;;3.83;1.17;;;24.00;46.80;;;;;;5029389;28;45253;-42
2020/12/29 06:25:28;;;;;;;5.47;1.20;;;24.10;46.80;;;;;;5029845;28;45590;-42
2020/12/29 06:27:54;;;;;;;4.35;1.13;;;24.00;46.70;;;;;;5028528;28;45276;-43
2020/12/29 06:30:20;;;;;;;4.72;1.42;;;24.10;46.60;;;;;;5029059;28;45548;-42
2020/12/29 06:32:47;;;;;;;3.17;1.42;;;24.00;46.50;;;;;;5029218;28;45504;-42
2020/12/29 06:35:13;;;;;;;5.07;1.25;;;24.10;46.80;;;;;;5029791;28;45458;-42
2020/12/29 06:37:57;;;;;;;5.68;1.33;;;24.10;46.80;;;;;;5023747;28;45988;-42
2020/12/29 06:40:22;;;;;;;4.38;1.50;;;24.10;46.50;;;;;;5046943;28;45500;-42
2020/12/29 06:42:48;;;;;;;4.70;1.48;;;24.10;46.40;;;;;;5028755;28;45400;-42
2020/12/29 06:45:14;;;;;;;8.05;1.60;;;24.00;46.20;;;;;;5029067;28;45370;-42
2020/12/29 06:47:42;;;;;;;6.50;1.40;;;24.00;46.50;;;;;;5044791;28;46997;-42
2020/12/29 06:50:21;;;;;;;6.55;1.88;;;24.00;46.70;;;;;;5044854;28;45563;-42
2020/12/29 06:52:55;;;;;;;5.32;1.77;;;24.10;45.50;;;;;;5064460;28;45439;-42
2020/12/29 06:55:21;;;;;;;8.98;1.88;;;24.00;46.10;;;;;;5034306;28;45393;-42
2020/12/29 06:57:48;;;;;;;4.45;1.50;;;24.00;45.80;;;;;;5010748;28;46335;-43
2020/12/29 07:00:13;;;;;;;6.82;2.25;;;24.10;45.80;;;;;;5046065;28;45442;-43
2020/12/29 07:02:40;;;;;;;6.18;2.10;;;24.10;45.90;;;;;;5032998;28;45276;-43
2020/12/29 07:05:13;;;;;;;7.10;1.98;;;24.00;45.90;;;;;;5029134;28;45448;-45
2020/12/29 07:08:05;;;;;;;3.90;1.50;;;24.10;46.10;;;;;;5046120;28;46142;-43
2020/12/29 07:10:45;;;;;;;6.75;1.77;;;24.10;46.20;;;;;;5045512;28;45452;-42
2020/12/29 07:13:17;;;;;;;6.68;1.75;;;24.10;46.30;;;;;;5048009;28;45373;-42
2020/12/29 07:15:55;;;;;;;5.10;1.75;;;24.20;46.40;;;;;;5048394;28;45334;-43
2020/12/29 07:18:25;;;;;;;4.45;1.35;;;24.20;46.40;;;;;;5031985;28;45334;-43
2020/12/29 07:20:52;;;;;;;5.88;1.80;;;24.20;46.40;;;;;;5028666;28;45283;-43
2020/12/29 07:23:18;;;;;;;3.47;1.38;;;24.20;46.50;;;;;;5026858;28;45992;-43
2020/12/29 07:25:48;;;;;;;5.22;1.95;;;24.30;46.50;;;;;;5019167;28;45515;-43
2020/12/29 07:28:14;;;;;;;4.75;1.70;;;24.30;46.50;;;;;;5036236;28;46352;-43
2020/12/29 07:30:40;;;;;;;6.60;1.83;;;24.30;46.50;;;;;;5023200;28;45392;-41
2020/12/29 07:33:09;;;;;;;4.75;1.50;;;24.30;46.50;;;;;;5021431;28;45300;-41
2020/12/29 07:35:35;;;;;;;3.65;1.45;;;24.30;46.50;;;;;;5040366;28;45391;-43
2020/12/29 07:38:13;;;;;;;3.97;1.55;;;24.40;46.50;;;;;;5022950;28;46249;-43
2020/12/29 07:40:39;;;;;;;6.45;1.98;;;24.40;46.60;;;;;;5037590;28;45611;-43
2020/12/29 07:43:05;;;;;;;2.80;1.38;;;24.40;46.70;;;;;;5021002;28;45403;-43
2020/12/29 07:45:31;;;;;;;4.68;1.60;;;24.40;46.70;;;;;;5020285;28;45339;-42
2020/12/29 07:48:01;;;;;;;5.63;1.83;;;24.50;46.70;;;;;;5020097;28;46186;-43
2020/12/29 07:50:27;;;;;;;5.60;1.48;;;24.50;46.60;;;;;;5022571;28;45349;-43
2020/12/29 07:53:12;;;;;;;3.33;1.52;;;24.50;46.70;;;;;;5020114;28;45309;-42
2020/12/29 07:55:41;;;;;;;4.70;1.52;;;24.50;46.70;;;;;;5037109;28;45354;-42
2020/12/29 07:58:08;;;;;;;6.78;1.70;;;24.40;46.90;;;;;;5035557;28;46027;-43
2020/12/29 08:00:34;;;;;;;3.88;1.50;;;24.40;47.10;;;;;;5012447;28;45518;-44
2020/12/29 08:03:00;;;;;;;6.35;1.45;;;24.30;47.80;;;;;;5010841;28;45381;-44
2020/12/29 08:05:26;;;;;;;8.60;2.08;;;24.30;47.50;;;;;;5011260;28;45352;-43
2020/12/29 08:08:02;;;;;;;16.88;1.80;;;24.40;47.30;;;;;;5027160;28;45454;-44
2020/12/29 08:10:30;;;;;;;16.40;2.67;;;24.40;47.60;;;;;;5010652;28;45413;-46
2020/12/29 08:12:58;;;;;;;13.70;2.20;;;24.40;48.50;;;;;;5032683;28;45818;-46
2020/12/29 08:15:33;;;;;;;18.02;2.17;;;24.40;48.10;;;;;;5042049;28;45554;-46
2020/12/29 08:18:03;;;;;;;10.10;2.88;;;24.40;47.90;;;;;;5034220;28;46189;-46
2020/12/29 08:20:28;;;;;;;7.07;1.83;;;24.30;48.00;;;;;;5036537;28;45470;-45
2020/12/29 08:22:54;;;;;;;7.07;1.80;;;24.30;47.90;;;;;;5017268;28;46780;-46
2020/12/29 08:25:20;;;;;;;7.60;1.70;;;24.30;48.00;;;;;;5026555;28;45571;-47
2020/12/29 08:27:46;;;;;;;4.38;1.27;;;24.40;47.90;;;;;;5000341;28;45499;-46
2020/12/29 08:30:11;;;;;;;4.07;1.73;;;24.50;47.80;;;;;;5000107;28;45791;-46
2020/12/29 08:32:37;;;;;;;10.45;1.70;;;24.60;47.50;;;;;;5017709;28;45581;-46
2020/12/29 08:35:03;;;;;;;11.18;2.90;;;24.70;47.40;;;;;;5006044;28;45604;-46
2020/12/29 08:37:30;;;;;;;7.97;1.63;;;24.80;47.30;;;;;;5016498;28;47269;-46
2020/12/29 08:40:07;;;;;;;7.05;1.30;;;24.80;47.20;;;;;;4998312;28;45917;-47
2020/12/29 08:42:33;;;;;;;9.68;1.95;;;24.80;47.30;;;;;;5012217;28;45383;-46
2020/12/29 08:44:59;;;;;;;5.10;1.30;;;24.70;47.20;;;;;;5001193;28;45854;-46
2020/12/29 08:47:32;;;;;;;8.40;1.30;;;24.70;47.20;;;;;;5021121;28;45508;-45
2020/12/29 08:49:59;;;;;;;4.82;1.40;;;24.70;47.20;;;;;;4998071;28;45437;-46
2020/12/29 08:52:31;;;;;;;6.75;1.42;;;24.70;47.20;;;;;;4990608;28;45317;-46
2020/12/29 08:54:57;;;;;;;2.83;1.27;;;24.70;47.20;;;;;;5013680;28;45898;-46
2020/12/29 08:57:25;;;;;;;6.15;1.27;;;24.70;47.30;;;;;;5021248;28;46325;-46
2020/12/29 08:59:51;;;;;;;4.65;1.10;;;24.70;47.20;;;;;;5025047;28;45298;-46
2020/12/29 09:02:20;;;;;;;3.65;1.65;;;24.60;47.20;;;;;;5000984;28;45373;-46
2020/12/29 09:04:46;;;;;;;3.15;1.00;;;24.60;47.20;;;;;;5007852;28;45491;-46
2020/12/29 09:07:14;;;;;;;4.57;1.10;;;24.60;47.20;;;;;;5007685;28;46213;-46
2020/12/29 09:09:52;;;;;;;4.80;1.35;;;24.60;47.40;;;;;;5006624;28;45383;-46
2020/12/29 09:12:31;;;;;;;10.13;1.67;;;24.50;47.30;;;;;;5007881;28;45493;-46
2020/12/29 09:14:57;;;;;;;4.80;1.20;;;24.50;47.60;;;;;;5008422;28;45447;-46
2020/12/29 09:17:24;;;;;;;5.10;1.50;;;24.50;47.60;;;;;;5025825;28;46237;-46
2020/12/29 09:20:08;;;;;;;5.75;1.63;;;24.40;47.50;;;;;;5026207;28;45351;-46
2020/12/29 09:22:35;;;;;;;6.68;1.45;;;24.50;47.60;;;;;;5028205;28;45307;-49
2020/12/29 09:25:01;;;;;;;4.18;1.45;;;24.50;47.60;;;;;;5020172;28;45638;-48
2020/12/29 09:27:31;;;;;;;5.22;1.42;;;24.50;47.60;;;;;;5001729;28;46997;-46
2020/12/29 09:29:57;;;;;;;7.30;2.80;;;24.50;47.60;;;;;;5012337;28;45767;-45
2020/12/29 09:32:24;;;;;;;5.28;2.55;;;24.50;47.60;;;;;;4995686;28;45417;-46
2020/12/29 09:34:50;;;;;;;4.95;2.42;;;24.50;47.60;;;;;;4999153;28;45654;-46
2020/12/29 09:37:17;;;;;;;5.03;2.83;;;24.50;48.40;;;;;;4998243;28;46053;-46
2020/12/29 09:39:43;;;;;;;5.25;2.55;;;24.50;47.90;;;;;;5016600;28;45573;-46
2020/12/29 09:42:09;;;;;;;6.00;2.28;;;24.40;47.90;;;;;;4997920;28;45467;-46
2020/12/29 09:44:35;;;;;;;8.70;2.30;;;24.40;47.80;;;;;;5010808;28;45454;-46
2020/12/29 09:47:00;;;;;;;7.40;2.90;;;24.40;47.90;;;;;;4999426;28;45432;-46
2020/12/29 09:49:26;;;;;;;5.45;3.08;;;24.40;47.90;;;;;;4998180;28;45380;-46
2020/12/29 09:51:53;;;;;;;8.32;3.95;;;24.40;48.00;;;;;;4996492;28;45789;-46
2020/12/29 09:54:18;;;;;;;11.30;3.60;;;24.40;48.20;;;;;;5003226;28;45490;-46
2020/12/29 09:56:44;;;;;;;5.93;4.03;;;24.40;48.20;;;;;;5018568;28;46378;-46
2020/12/29 09:59:09;;;;;;;8.15;4.25;;;24.30;48.40;;;;;;4997717;28;45175;-46
2020/12/29 10:01:35;;;;;;;9.48;4.10;;;24.30;48.70;;;;;;5000746;28;45556;-46
2020/12/29 10:04:01;;;;;;;9.25;4.00;;;24.30;48.70;;;;;;4999159;28;45428;-46
2020/12/29 10:06:26;;;;;;;8.60;4.47;;;24.30;49.00;;;;;;5016954;28;46735;-46
2020/12/29 10:08:52;;;;;;;8.18;4.45;;;24.20;48.60;;;;;;4998744;28;45621;-46
2020/12/29 10:11:17;;;;;;;6.70;4.10;;;24.20;48.70;;;;;;4996806;28;45340;-46
2020/12/29 10:13:43;;;;;;;8.85;4.90;;;24.20;48.60;;;;;;4998266;28;45523;-45
2020/12/29 10:16:09;;;;;;;10.15;5.95;;;24.20;48.70;;;;;;5003801;28;46331;-46
2020/12/29 10:18:34;;;;;;;9.70;5.75;;;24.10;48.90;;;;;;5012478;28;45409;-46
2020/12/29 10:21:00;;;;;;;13.32;8.95;;;24.10;48.80;;;;;;5012573;28;45410;-46
2020/12/29 10:23:26;;;;;;;14.93;8.30;;;24.10;49.00;;;;;;5012950;28;45358;-45
2020/12/29 10:25:51;;;;;;;26.75;14.20;;;24.10;48.90;;;;;;5009120;28;45444;-46
2020/12/29 10:28:19;;;;;;;22.75;13.93;;;24.10;49.30;;;;;;5007494;28;45451;-46
2020/12/29 10:30:46;;;;;;;49.63;21.17;;;24.10;49.20;;;;;;5025837;28;45773;-45
2020/12/29 10:33:11;;;;;;;27.58;15.70;;;24.00;49.30;;;;;;5009693;28;45391;-46
2020/12/29 10:35:38;;;;;;;32.80;18.60;;;24.00;49.10;;;;;;5012123;28;45333;-45
2020/12/29 10:38:04;;;;;;;45.28;26.77;;;24.00;49.10;;;;;;5012295;28;45365;-45
2020/12/29 10:40:29;;;;;;;59.00;37.08;;;24.00;49.80;;;;;;5008870;28;45417;-46
2020/12/29 10:42:55;;;;;;;70.32;41.95;;;23.90;49.00;;;;;;5027069;28;45545;-45
2020/12/29 10:45:21;;;;;;;58.70;39.40;;;23.90;48.10;;;;;;5011801;28;46565;-45
2020/12/29 10:47:46;;;;;;;48.17;31.48;;;23.80;47.10;;;;;;5009128;28;45358;-46
2020/12/29 10:50:12;;;;;;;38.22;25.10;;;23.80;46.20;;;;;;5008675;28;45375;-46
2020/12/29 10:52:37;;;;;;;33.97;21.35;;;23.70;45.20;;;;;;5010052;28;45383;-46
2020/12/29 10:55:03;;;;;;;34.05;21.88;;;23.70;44.60;;;;;;5007076;28;46136;-48
2020/12/29 10:57:29;;;;;;;26.02;16.85;;;23.60;44.80;;;;;;5008524;28;45339;-48
2020/12/29 10:59:54;;;;;;;29.10;17.27;;;23.60;44.10;;;;;;5025237;28;45378;-48
2020/12/29 11:02:20;;;;;;;25.42;17.25;;;23.60;44.10;;;;;;5025460;28;45333;-48
2020/12/29 11:04:45;;;;;;;27.80;17.40;;;23.60;44.20;;;;;;5008787;28;46066;-48
2020/12/29 11:07:11;;;;;;;25.77;15.18;;;23.50;44.30;;;;;;5008279;28;45821;-48
2020/12/29 11:09:37;;;;;;;26.77;17.55;;;23.50;44.50;;;;;;5008634;28;45404;-48
2020/12/29 11:12:02;;;;;;;21.83;16.42;;;23.50;44.60;;;;;;5008230;28;45627;-48
2020/12/29 11:14:28;;;;;;;26.63;15.98;;;23.50;44.70;;;;;;4992958;28;46978;-49
2020/12/29 11:16:54;;;;;;;25.48;16.88;;;23.50;45.00;;;;;;4991824;28;45445;-49
2020/12/29 11:19:19;;;;;;;27.65;18.60;;;23.50;45.40;;;;;;4991682;28;45345;-48
2020/12/29 11:21:46;;;;;;;31.83;24.60;;;23.40;45.10;;;;;;5006361;28;45350;-49
2020/12/29 11:24:12;;;;;;;45.63;35.45;;;23.40;44.50;;;;;;5011301;28;45330;-48
2020/12/29 11:26:37;;;;;;;48.45;39.53;;;23.40;44.10;;;;;;5009911;28;45411;-48
2020/12/29 11:29:03;;;;;;;56.17;43.05;;;23.30;43.80;;;;;;4999563;28;45339;-48
2020/12/29 11:31:28;;;;;;;52.58;43.10;;;23.30;44.20;;;;;;5024425;28;45597;-48
2020/12/29 11:33:54;;;;;;;58.03;45.75;;;23.20;44.40;;;;;;5028224;28;46427;-48
2020/12/29 11:36:21;;;;;;;63.88;51.78;;;23.20;44.90;;;;;;5027466;28;45453;-50
2020/12/29 11:38:47;;;;;;;65.75;53.70;;;23.20;45.40;;;;;;5041462;28;45545;-49
2020/12/29 11:41:12;;;;;;;65.60;57.17;;;23.20;45.80;;;;;;5021041;28;45505;-49
2020/12/29 11:43:38;;;;;;;68.55;56.20;;;23.20;46.00;;;;;;5001574;28;45318;-49
2020/12/29 11:46:05;;;;;;;72.00;56.45;;;23.10;46.00;;;;;;5024170;28;45805;-50
2020/12/29 11:48:31;;;;;;;67.85;53.97;;;23.20;46.10;;;;;;4995338;28;45372;-49
2020/12/29 11:50:56;;;;;;;66.13;53.03;;;23.20;46.30;;;;;;4992898;28;45591;-49
2020/12/29 11:53:22;;;;;;;60.33;49.63;;;23.10;46.40;;;;;;5007816;28;45373;-49
2020/12/29 11:55:47;;;;;;;59.28;48.53;;;23.10;46.50;;;;;;5002797;28;45508;-50
2020/12/29 11:58:13;;;;;;;53.17;45.17;;;23.10;46.70;;;;;;5025222;28;45370;-49
2020/12/29 12:00:39;;;;;;;51.25;40.85;;;23.10;46.90;;;;;;5027986;28;45430;-49
2020/12/29 12:03:04;;;;;;;51.05;41.22;;;23.10;46.80;;;;;;5010633;28;46038;-48
2020/12/29 12:05:30;;;;;;;50.95;41.92;;;23.10;46.80;;;;;;5010879;28;45435;-48
2020/12/29 12:07:55;;;;;;;51.10;40.42;;;23.10;47.10;;;;;;5010928;28;45348;-48
2020/12/29 12:10:21;;;;;;;52.85;40.30;;;23.10;47.20;;;;;;5011365;28;45871;-49
2020/12/29 12:12:47;;;;;;;49.72;39.85;;;23.10;47.50;;;;;;5028769;28;47261;-46
2020/12/29 12:15:12;;;;;;;44.60;36.35;;;23.10;47.70;;;;;;5023976;28;45399;-46
2020/12/29 12:17:38;;;;;;;46.90;36.50;;;23.10;47.70;;;;;;5026661;28;45529;-46
2020/12/29 12:20:04;;;;;;;51.05;36.83;;;23.10;47.70;;;;;;5027078;28;45648;-46
2020/12/29 12:22:29;;;;;;;45.67;34.75;;;23.10;47.90;;;;;;5026479;28;46073;-45
2020/12/29 12:24:55;;;;;;;41.42;32.67;;;23.10;48.10;;;;;;5030356;28;45367;-47
2020/12/29 12:27:21;;;;;;;40.50;33.58;;;23.10;48.30;;;;;;5019559;28;45450;-47
2020/12/29 12:29:46;;;;;;;38.55;33.17;;;23.00;48.40;;;;;;5008743;28;45395;-47
2020/12/29 12:32:12;;;;;;;45.53;33.33;;;23.00;49.00;;;;;;5005457;28;46438;-47
2020/12/29 12:34:38;;;;;;;41.58;31.08;;;23.10;48.40;;;;;;5018536;28;45431;-47
2020/12/29 12:37:04;;;;;;;39.40;29.95;;;23.00;48.50;;;;;;4997833;28;45550;-47
2020/12/29 12:39:29;;;;;;;38.03;27.67;;;23.00;48.50;;;;;;5001659;28;45475;-47
2020/12/29 12:41:55;;;;;;;34.67;27.95;;;23.00;48.60;;;;;;5027041;28;46166;-47